Time;durP1;ratioP1;P1;durP2;ratioP2;P2;SDS_P1;SDS_P2;PMS_P1;PMS_P2;Temp;Humidity;BMP_temperature;BMP_pressure;BME280_temperature;BME280_humidity;BME280_pressure;Samples;Min_cycle;Max_cycle;Signal;HPM_P1;HPM_P2
2022/09/16 00:38:23;;;;;;;5.97;2.77;;;;;;;18.39;70.02;99000.53;1690077;82;20953;-78
2022/09/16 00:40:51;;;;;;;4.47;2.83;;;;;;;18.36;70.08;98995.84;1700584;82;21550;-77
2022/09/16 00:43:18;;;;;;;4.73;2.70;;;;;;;18.35;70.09;98998.88;1704259;83;21079;-78
2022/09/16 00:45:50;;;;;;;4.43;2.67;;;;;;;18.37;70.11;99000.11;1704224;84;21103;-77
2022/09/16 00:48:20;;;;;;;4.08;2.80;;;;;;;18.39;70.10;98997.83;1689367;82;21242;-77
2022/09/16 00:50:51;;;;;;;2.87;2.33;;;;;;;18.39;70.03;98997.05;1720070;82;20991;-78
2022/09/16 00:53:22;;;;;;;3.20;2.22;;;;;;;18.38;70.01;99000.89;1712185;83;21043;-78
2022/09/16 00:55:49;;;;;;;4.22;2.72;;;;;;;18.36;70.07;99007.19;1707456;82;21504;-76
2022/09/16 00:58:30;;;;;;;3.90;2.77;;;;;;;18.35;70.11;99013.17;1693461;84;21051;-78
2022/09/16 01:00:59;;;;;;;3.80;2.52;;;;;;;18.32;70.11;99015.78;1704058;84;21138;-77
2022/09/16 01:03:26;;;;;;;4.93;3.00;;;;;;;18.32;70.17;99017.92;1700053;82;20945;-76
2022/09/16 01:05:54;;;;;;;3.50;2.57;;;;;;;18.32;70.21;99026.02;1667756;85;21061;-77
2022/09/16 01:08:21;;;;;;;14.47;2.90;;;;;;;18.28;70.25;99038.66;1728666;82;20996;-77
2022/09/16 01:10:47;;;;;;;3.50;2.50;;;;;;;18.24;70.35;99039.92;1696384;84;21025;-77
2022/09/16 01:13:14;;;;;;;4.03;3.10;;;;;;;18.22;70.52;99044.09;1696765;83;21783;-78
2022/09/16 01:16:02;;;;;;;5.17;3.10;;;;;;;18.17;70.70;99049.77;1706822;82;21074;-77
2022/09/16 01:18:49;;;;;;;4.30;3.00;;;;;;;18.15;70.76;99043.91;1714844;83;21091;-78
2022/09/16 01:21:47;;;;;;;5.27;3.20;;;;;;;18.13;70.82;99042.09;1711592;83;21004;-78
2022/09/16 01:24:37;;;;;;;4.00;2.90;;;;;;;18.12;70.84;99035.13;1712101;83;20947;-76
2022/09/16 01:27:26;;;;;;;3.70;2.90;;;;;;;18.11;70.83;99031.65;1720663;83;21262;-76
2022/09/16 01:30:07;;;;;;;3.60;2.90;;;;;;;18.10;70.86;99030.63;1715436;82;21091;-76
2022/09/16 01:33:05;;;;;;;4.00;2.95;;;;;;;18.05;70.91;99049.23;1683828;83;20971;-77
2022/09/16 01:36:04;;;;;;;3.60;2.67;;;;;;;18.05;70.98;99049.23;1697023;83;21036;-76
2022/09/16 01:39:11;;;;;;;3.70;2.83;;;;;;;18.04;71.07;99044.97;1676001;84;21072;-76
2022/09/16 01:42:06;;;;;;;4.87;3.20;;;;;;;18.05;71.11;99048.66;1741480;82;21163;-77
2022/09/16 01:44:52;;;;;;;4.73;3.10;;;;;;;18.08;71.09;99039.66;1730955;82;20944;-78
2022/09/16 01:47:33;;;;;;;3.90;3.00;;;;;;;18.07;71.10;99050.25;1708908;84;21027;-77
2022/09/16 01:50:11;;;;;;;5.33;3.25;;;;;;;18.07;71.14;99055.09;1684503;84;20984;-77
2022/09/16 01:53:02;;;;;;;4.20;2.80;;;;;;;18.05;71.05;99055.41;1692239;84;21047;-76
2022/09/16 01:55:39;;;;;;;4.40;2.80;;;;;;;18.04;71.11;99056.55;1705322;84;21946;-76
2022/09/16 01:58:29;;;;;;;4.27;3.33;;;;;;;18.04;71.18;99050.37;1695254;82;21028;-77
2022/09/16 02:01:01;;;;;;;5.13;3.53;;;;;;;18.04;71.22;99054.42;1691531;84;21110;-76
2022/09/16 02:03:32;;;;;;;4.87;3.77;;;;;;;18.04;71.27;99054.42;1702590;84;21151;-76
2022/09/16 02:06:06;;;;;;;4.20;3.50;;;;;;;18.03;71.29;99058.23;1704240;84;20958;-78
2022/09/16 02:08:39;;;;;;;5.67;3.80;;;;;;;18.00;71.31;99065.13;1703473;82;22026;-77
2022/09/16 02:11:10;;;;;;;4.97;3.43;;;;;;;17.95;71.40;99059.17;1694836;82;21039;-77
2022/09/16 02:13:41;;;;;;;4.90;3.87;;;;;;;17.94;71.48;99058.95;1703678;82;21044;-77
2022/09/16 02:16:17;;;;;;;6.47;4.10;;;;;;;17.95;71.55;99053.77;1691274;84;21148;-76
2022/09/16 02:18:46;;;;;;;4.77;3.80;;;;;;;17.92;71.59;99053.10;1693393;84;21091;-77
2022/09/16 02:21:15;;;;;;;5.70;3.80;;;;;;;17.94;71.69;99061.66;1704920;84;21873;-76
2022/09/16 02:23:49;;;;;;;5.07;3.87;;;;;;;17.93;71.73;99052.77;1704145;83;21508;-78
2022/09/16 02:26:20;;;;;;;5.80;4.17;;;;;;;17.94;71.78;99052.98;1703241;82;21571;-77
2022/09/16 02:28:48;;;;;;;8.20;4.37;;;;;;;17.95;71.80;99053.20;1703543;84;21479;-76
2022/09/16 02:31:15;;;;;;;6.87;4.30;;;;;;;17.94;71.84;99041.41;1707459;84;21585;-76
2022/09/16 02:33:53;;;;;;;5.20;4.20;;;;;;;17.96;71.88;99043.18;1701871;82;21124;-76
2022/09/16 02:36:21;;;;;;;5.50;3.90;;;;;;;17.96;71.88;99042.61;1693183;82;20960;-77
2022/09/16 02:38:52;;;;;;;5.90;4.60;;;;;;;17.97;71.90;99050.17;1687651;84;21147;-76
2022/09/16 02:41:18;;;;;;;5.67;4.00;;;;;;;17.94;71.88;99051.64;1704245;84;20997;-77
2022/09/16 02:43:45;;;;;;;6.63;4.87;;;;;;;17.95;71.92;99051.85;1702875;82;20963;-76
2022/09/16 02:46:32;;;;;;;5.30;4.53;;;;;;;17.96;71.89;99049.36;1691018;84;21126;-77
2022/09/16 02:49:30;;;;;;;7.50;4.47;;;;;;;17.97;71.87;99056.36;1719625;82;20932;-76
2022/09/16 02:52:08;;;;;;;6.13;4.43;;;;;;;17.99;71.83;99058.70;1668564;86;21095;-76
2022/09/16 02:54:50;;;;;;;6.80;4.50;;;;;;;18.02;71.81;99058.02;1688365;83;21033;-76
2022/09/16 02:57:17;;;;;;;8.70;5.10;;;;;;;17.99;71.75;99050.03;1702407;83;27391;-74
2022/09/16 02:59:44;;;;;;;7.07;4.40;;;;;;;18.03;71.77;99056.34;1766198;80;21639;-75
2022/09/16 03:02:11;;;;;;;6.17;4.57;;;;;;;18.03;71.70;99056.88;1770986;80;21066;-75
2022/09/16 03:04:37;;;;;;;7.43;4.60;;;;;;;18.04;71.65;99067.36;1770309;80;21209;-75
2022/09/16 03:07:05;;;;;;;8.30;4.40;;;;;;;18.06;71.64;99061.59;1767969;80;20990;-75
2022/09/16 03:09:34;;;;;;;6.00;4.50;;;;;;;18.09;71.56;99065.54;1755960;80;21055;-76
2022/09/16 03:12:36;;;;;;;6.27;4.57;;;;;;;18.09;71.48;99062.27;1762925;80;21136;-74
2022/09/16 03:15:26;;;;;;;5.55;4.25;;;;;;;18.08;71.39;99064.76;1759767;80;21129;-76
2022/09/16 03:18:04;;;;;;;7.40;4.90;;;;;;;18.07;71.38;99068.59;1772273;80;21028;-74
2022/09/16 03:21:01;;;;;;;5.40;4.50;;;;;;;18.10;71.31;99057.64;1712046;83;21082;-75
2022/09/16 03:23:45;;;;;;;5.00;4.27;;;;;;;18.09;71.19;99060.14;1684040;83;21018;-75
2022/09/16 03:26:50;;;;;;;5.83;4.60;;;;;;;18.11;71.12;99071.39;1693057;84;21663;-75
2022/09/16 03:29:25;;;;;;;6.37;4.60;;;;;;;18.05;71.08;99078.37;1696971;83;21334;-74
2022/09/16 03:32:16;;;;;;;5.83;4.30;;;;;;;18.02;71.05;99076.36;1761986;80;21531;-75
2022/09/16 03:34:50;;;;;;;5.97;4.65;;;;;;;17.98;71.16;99067.38;1747010;80;21086;-76
2022/09/16 03:37:18;;;;;;;6.07;5.00;;;;;;;17.98;71.25;99073.34;1745483;80;21051;-74
2022/09/16 03:39:55;;;;;;;5.53;4.50;;;;;;;17.98;71.31;99064.67;1749694;80;21972;-75
2022/09/16 03:42:21;;;;;;;5.63;4.80;;;;;;;17.97;71.33;99061.77;1753242;80;21038;-75
2022/09/16 03:44:48;;;;;;;6.17;4.30;;;;;;;17.95;71.36;99061.30;1761179;80;21011;-73
2022/09/16 03:47:15;;;;;;;6.77;4.97;;;;;;;17.93;71.45;99052.77;1712180;83;21070;-74
2022/09/16 03:49:42;;;;;;;6.40;4.83;;;;;;;17.92;71.46;99058.50;1703883;83;21073;-73
2022/09/16 03:52:09;;;;;;;5.23;4.10;;;;;;;17.90;71.49;99057.52;1759056;80;21153;-74
2022/09/16 03:54:36;;;;;;;6.07;4.33;;;;;;;17.90;71.52;99068.31;1770937;80;21378;-72
2022/09/16 03:57:03;;;;;;;5.47;4.73;;;;;;;17.86;71.55;99066.62;1770417;80;20995;-73
2022/09/16 03:59:30;;;;;;;6.63;4.47;;;;;;;17.79;71.61;99071.25;1766249;80;21145;-73
2022/09/16 04:01:56;;;;;;;5.60;4.20;;;;;;;17.78;71.78;99071.04;1768313;80;21518;-73
2022/09/16 04:04:23;;;;;;;6.57;5.07;;;;;;;17.77;71.86;99075.66;1776872;80;21271;-74
2022/09/16 04:06:49;;;;;;;6.33;5.10;;;;;;;17.74;71.97;99080.92;1784386;80;20971;-74
2022/09/16 04:09:16;;;;;;;6.33;4.87;;;;;;;17.70;72.07;99079.47;1776136;80;21058;-73
2022/09/16 04:11:43;;;;;;;8.23;5.20;;;;;;;17.67;72.24;99082.03;1752467;80;21083;-73
2022/09/16 04:14:09;;;;;;;7.43;5.17;;;;;;;17.67;72.40;99082.03;1750603;81;21051;-73
2022/09/16 04:16:38;;;;;;;7.57;4.97;;;;;;;17.69;72.43;99090.03;1750468;82;21028;-74
2022/09/16 04:19:05;;;;;;;6.50;4.53;;;;;;;17.70;72.47;99092.16;1712185;82;20955;-74
2022/09/16 04:21:32;;;;;;;7.30;5.10;;;;;;;17.65;72.53;99092.41;1712087;83;21052;-75
2022/09/16 04:23:59;;;;;;;7.20;5.30;;;;;;;17.58;72.60;99101.08;1712218;83;21019;-75
2022/09/16 04:26:26;;;;;;;6.10;5.00;;;;;;;17.57;72.75;99104.34;1712751;83;21008;-75
2022/09/16 04:28:56;;;;;;;5.37;4.53;;;;;;;17.55;72.80;99102.53;1710533;82;21129;-75
2022/09/16 04:31:22;;;;;;;6.60;4.77;;;;;;;17.48;72.88;99094.22;1692121;82;21059;-75
2022/09/16 04:33:50;;;;;;;6.77;5.00;;;;;;;17.47;73.01;99092.66;1679033;85;21036;-75
2022/09/16 04:36:18;;;;;;;5.53;4.60;;;;;;;17.48;73.07;99094.79;1678575;84;21563;-74
2022/09/16 04:38:46;;;;;;;6.53;4.53;;;;;;;17.46;73.12;99104.56;1695402;83;21027;-74
2022/09/16 04:41:17;;;;;;;7.80;4.67;;;;;;;17.44;73.20;99114.11;1701376;83;21207;-75
2022/09/16 04:43:52;;;;;;;6.13;4.70;;;;;;;17.41;73.31;99114.81;1750371;80;20996;-76
2022/09/16 04:46:19;;;;;;;5.70;4.60;;;;;;;17.41;73.44;99100.75;1750491;80;21555;-76
2022/09/16 04:48:50;;;;;;;7.60;4.60;;;;;;;17.45;73.53;99100.30;1750795;80;21448;-75
2022/09/16 04:51:18;;;;;;;4.83;4.00;;;;;;;17.48;73.50;99095.58;1711134;82;20984;-74
2022/09/16 04:53:46;;;;;;;5.40;4.47;;;;;;;17.50;73.37;99087.91;1709915;82;21252;-75
2022/09/16 04:56:15;;;;;;;7.90;4.50;;;;;;;17.50;73.20;99096.00;1710692;82;21046;-75
2022/09/16 04:58:44;;;;;;;6.73;4.90;;;;;;;17.50;73.13;99105.45;1702402;83;21060;-74
2022/09/16 05:01:20;;;;;;;5.13;4.20;;;;;;;17.49;73.09;99113.33;1733076;80;21055;-76
2022/09/16 05:03:49;;;;;;;5.80;4.77;;;;;;;17.49;73.12;99123.34;1725965;82;22203;-75
2022/09/16 05:06:34;;;;;;;6.17;4.20;;;;;;;17.48;73.16;99125.83;1753083;80;21219;-74
2022/09/16 05:09:05;;;;;;;5.57;4.40;;;;;;;17.42;72.95;99125.27;1761508;80;21038;-73
2022/09/16 05:11:41;;;;;;;5.57;4.43;;;;;;;17.38;72.98;99125.72;1771340;80;21075;-74
2022/09/16 05:14:16;;;;;;;7.37;4.83;;;;;;;17.35;72.94;99131.22;1749372;80;21110;-74
2022/09/16 05:16:44;;;;;;;6.03;4.50;;;;;;;17.35;72.94;99145.28;1719322;83;21074;-74
2022/09/16 05:19:13;;;;;;;5.73;4.57;;;;;;;17.35;72.96;99135.83;1719430;83;21154;-75
2022/09/16 05:21:42;;;;;;;6.37;4.23;;;;;;;17.36;72.91;99125.25;1735195;80;21108;-75
2022/09/16 05:24:12;;;;;;;7.00;4.30;;;;;;;17.37;72.80;99143.02;1761292;80;21132;-74
2022/09/16 05:26:41;;;;;;;6.43;4.70;;;;;;;17.39;72.80;99142.70;1710947;82;21016;-74
2022/09/16 05:29:14;;;;;;;6.17;4.80;;;;;;;17.35;72.72;99146.63;1704175;83;21040;-74
2022/09/16 05:31:42;;;;;;;5.70;4.40;;;;;;;17.35;72.76;99143.93;1763380;80;21211;-72
2022/09/16 05:34:17;;;;;;;6.60;5.03;;;;;;;17.40;72.84;99142.34;1762820;80;21043;-74
2022/09/16 05:36:53;;;;;;;5.97;4.67;;;;;;;17.45;72.81;99137.30;1719381;82;21063;-74
2022/09/16 05:39:21;;;;;;;5.40;4.60;;;;;;;17.48;72.63;99138.77;1747877;80;21538;-76
2022/09/16 05:42:00;;;;;;;5.40;4.75;;;;;;;17.51;72.55;99146.19;1710669;82;21265;-74
2022/09/16 05:44:30;;;;;;;6.77;4.50;;;;;;;17.53;72.47;99135.82;1701064;82;21329;-75
2022/09/16 05:46:57;;;;;;;5.80;4.83;;;;;;;17.58;72.49;99140.23;1682257;83;21105;-76
2022/09/16 05:49:23;;;;;;;5.30;4.60;;;;;;;17.62;72.40;99155.97;1762119;80;20988;-74
2022/09/16 05:51:52;;;;;;;5.47;4.57;;;;;;;17.67;72.34;99158.98;1767840;80;21023;-75
2022/09/16 05:54:23;;;;;;;7.00;4.90;;;;;;;17.67;72.28;99161.16;1784049;80;21014;-76
2022/09/16 05:56:52;;;;;;;6.30;4.70;;;;;;;17.69;72.27;99160.80;1767502;80;21215;-75
2022/09/16 05:59:23;;;;;;;6.93;4.70;;;;;;;17.72;72.25;99164.18;1751158;80;21522;-74
2022/09/16 06:01:57;;;;;;;5.90;4.73;;;;;;;17.76;72.13;99167.77;1737848;80;21522;-74
2022/09/16 06:04:32;;;;;;;6.17;4.80;;;;;;;17.82;72.10;99166.45;1732543;80;21042;-76
2022/09/16 06:07:18;;;;;;;6.53;4.80;;;;;;;17.84;71.92;99164.20;1746649;80;21086;-76
2022/09/16 06:09:51;;;;;;;6.10;4.47;;;;;;;17.92;71.85;99159.80;1741657;80;21104;-76
2022/09/16 06:12:35;;;;;;;5.57;3.90;;;;;;;17.98;71.69;99159.23;1729195;80;21047;-76
2022/09/16 06:15:09;;;;;;;6.40;4.50;;;;;;;18.06;71.50;99168.33;1738594;81;20976;-75
2022/09/16 06:17:37;;;;;;;8.00;4.80;;;;;;;18.05;71.06;99164.84;1744833;80;21090;-76
2022/09/16 06:20:13;;;;;;;6.50;4.63;;;;;;;18.04;70.97;99165.20;1747758;81;21015;-75
2022/09/16 06:22:44;;;;;;;5.17;4.10;;;;;;;18.11;70.95;99170.02;1750170;82;21249;-75
2022/09/16 06:25:17;;;;;;;5.37;4.60;;;;;;;18.15;70.89;99178.45;1741975;81;21523;-75
2022/09/16 06:27:53;;;;;;;5.73;4.13;;;;;;;18.15;70.54;99176.31;1749535;80;21067;-76
2022/09/16 06:30:30;;;;;;;7.03;4.30;;;;;;;18.22;70.73;99187.33;1707314;82;22239;-75
2022/09/16 06:33:02;;;;;;;6.17;4.90;;;;;;;18.28;70.56;99185.40;1706690;84;21617;-76
2022/09/16 06:35:34;;;;;;;5.40;4.30;;;;;;;18.33;70.54;99181.69;1691518;82;21170;-76
2022/09/16 06:38:02;;;;;;;5.43;4.57;;;;;;;18.41;70.57;99178.62;1700680;82;21448;-76
2022/09/16 06:40:30;;;;;;;7.27;4.93;;;;;;;18.45;70.46;99181.63;1715705;82;20968;-77
2022/09/16 06:43:03;;;;;;;7.53;4.90;;;;;;;18.52;70.31;99181.05;1696211;83;21131;-76
2022/09/16 06:45:39;;;;;;;6.23;4.70;;;;;;;18.58;70.15;99182.95;1694314;83;21064;-78
2022/09/16 06:48:07;;;;;;;5.33;4.73;;;;;;;18.67;69.95;99186.30;1686749;83;21503;-75
2022/09/16 06:50:47;;;;;;;7.60;5.13;;;;;;;18.72;69.58;99185.53;1686343;84;21122;-77
2022/09/16 06:53:18;;;;;;;8.50;5.17;;;;;;;18.80;69.57;99185.72;1710312;83;20987;-76
2022/09/16 06:55:45;;;;;;;9.17;5.17;;;;;;;18.89;69.48;99185.79;1718038;83;20967;-77
2022/09/16 06:58:17;;;;;;;7.13;5.30;;;;;;;19.03;69.40;99184.59;1718812;83;21082;-76
2022/09/16 07:00:44;;;;;;;;;;;;;;;19.18;69.02;99192.73;1721326;83;21288;-75
2022/09/16 07:03:21;;;;;;;5.50;4.90;;;;;;;19.33;68.63;99191.17;1719321;83;20180;-76
2022/09/16 07:06:01;;;;;;;8.40;6.10;;;;;;;19.38;67.83;99190.92;1718785;83;21006;-76
2022/09/16 07:08:34;;;;;;;7.23;5.20;;;;;;;19.46;67.76;99193.23;1719081;83;21022;-78
2022/09/16 07:11:10;;;;;;;6.53;5.20;;;;;;;19.55;67.51;99196.55;1718617;83;21102;-78
2022/09/16 07:13:48;;;;;;;7.00;5.30;;;;;;;19.66;67.73;99205.73;1701892;83;21220;-77
2022/09/16 07:16:23;;;;;;;7.97;4.87;;;;;;;19.79;67.00;99208.36;1712055;83;21004;-77
2022/09/16 07:18:58;;;;;;;6.77;5.40;;;;;;;19.79;66.64;99207.78;1712700;83;21589;-78
2022/09/16 07:21:35;;;;;;;7.23;5.53;;;;;;;19.79;66.51;99209.71;1712278;83;21048;-77
2022/09/16 07:24:18;;;;;;;6.47;4.90;;;;;;;19.79;66.54;99211.06;1712558;83;21505;-77
2022/09/16 07:26:58;;;;;;;6.53;5.70;;;;;;;19.81;66.38;99219.61;1712737;83;20976;-76
2022/09/16 07:29:36;;;;;;;6.30;4.87;;;;;;;19.78;66.40;99225.77;1714171;83;21019;-76
2022/09/16 07:32:07;;;;;;;7.03;5.27;;;;;;;19.72;66.01;99231.22;1694741;83;20999;-78
2022/09/16 07:34:37;;;;;;;6.80;5.75;;;;;;;19.64;66.43;99231.05;1693361;83;21629;-77
2022/09/16 07:37:09;;;;;;;7.50;5.73;;;;;;;19.64;66.75;99227.53;1712357;83;21035;-78
2022/09/16 07:39:37;;;;;;;7.33;6.40;;;;;;;19.65;66.79;99219.64;1697342;84;22193;-75
2022/09/16 07:42:12;;;;;;;7.70;6.07;;;;;;;19.73;66.85;99230.86;1713573;83;20988;-77
2022/09/16 07:44:45;;;;;;;7.03;5.70;;;;;;;19.76;66.50;99222.03;1712932;83;21502;-78
2022/09/16 07:47:19;;;;;;;7.27;6.27;;;;;;;19.71;66.33;99220.96;1712355;83;21015;-79
2022/09/16 07:49:55;;;;;;;8.63;6.23;;;;;;;19.73;66.59;99213.82;1712275;83;21102;-79
2022/09/16 07:52:28;;;;;;;7.17;6.20;;;;;;;19.79;66.22;99209.71;1712553;83;21782;-79
2022/09/16 07:55:00;;;;;;;7.10;6.40;;;;;;;19.81;66.29;99212.84;1712122;83;21082;-79
2022/09/16 07:57:30;;;;;;;9.07;6.07;;;;;;;19.86;66.20;99218.78;1711983;83;21006;-79
2022/09/16 08:00:08;;;;;;;7.00;5.57;;;;;;;19.96;66.40;99210.69;1712074;83;21451;-78
2022/09/16 08:02:47;;;;;;;7.70;5.43;;;;;;;20.11;66.17;99204.45;1712484;83;21019;-77
2022/09/16 08:05:15;;;;;;;6.83;6.13;;;;;;;20.21;65.57;99214.55;1712147;83;21101;-78
2022/09/16 08:07:42;;;;;;;7.90;5.60;;;;;;;20.21;65.10;99209.91;1710391;82;21097;-78
2022/09/16 08:10:09;;;;;;;7.43;5.77;;;;;;;20.21;65.11;99204.48;1702370;82;20986;-79
2022/09/16 08:12:36;;;;;;;6.27;5.53;;;;;;;20.29;65.33;99215.68;1652557;85;21033;-78
2022/09/16 08:15:04;;;;;;;8.97;6.37;;;;;;;20.38;64.93;99212.20;1712163;83;20955;-78
2022/09/16 08:17:31;;;;;;;8.27;5.93;;;;;;;20.48;64.43;99214.14;1696292;84;21556;-78
2022/09/16 08:19:58;;;;;;;7.63;5.70;;;;;;;20.56;64.00;99222.66;1696292;84;21025;-78
2022/09/16 08:22:25;;;;;;;7.23;5.43;;;;;;;20.54;63.62;99222.25;1696270;84;21557;-77
2022/09/16 08:24:52;;;;;;;7.63;5.97;;;;;;;20.57;63.66;99224.25;1696316;84;21707;-79
2022/09/16 08:27:20;;;;;;;7.60;4.80;;;;;;;20.69;63.55;99221.38;1686691;84;21051;-78
2022/09/16 08:29:47;;;;;;;5.97;5.27;;;;;;;20.84;63.19;99217.03;1684803;83;21644;-80
2022/09/16 08:32:14;;;;;;;7.47;5.77;;;;;;;20.95;62.96;99209.09;1743276;80;20965;-77
2022/09/16 08:34:41;;;;;;;7.40;5.57;;;;;;;20.95;62.15;99218.59;1749956;82;21027;-78
2022/09/16 08:37:08;;;;;;;7.17;5.00;;;;;;;20.95;61.75;99208.52;1712396;83;21547;-82
2022/09/16 08:39:35;;;;;;;7.80;5.90;;;;;;;21.03;62.23;99206.16;1710811;83;21504;-79
2022/09/16 08:42:28;;;;;;;8.03;5.83;;;;;;;21.09;62.01;99199.84;1711658;83;21087;-77
2022/09/16 08:45:38;;;;;;;7.30;5.30;;;;;;;21.20;62.11;99199.47;1696569;83;21135;-78
2022/09/16 08:48:49;;;;;;;6.83;4.73;;;;;;;21.28;61.80;99197.08;1680695;83;21058;-79
2022/09/16 08:51:18;;;;;;;7.83;5.33;;;;;;;21.47;61.17;99190.84;1735745;80;20959;-77
2022/09/16 08:53:51;;;;;;;5.63;4.70;;;;;;;21.66;60.67;99200.07;1772528;80;21509;-78
2022/09/16 08:56:20;;;;;;;8.20;5.27;;;;;;;21.73;59.88;99194.16;1772176;80;21656;-79
2022/09/16 08:58:53;;;;;;;7.23;4.23;;;;;;;21.82;60.08;99202.66;1763625;80;21027;-78
2022/09/16 09:01:41;;;;;;;6.43;4.60;;;;;;;21.94;59.35;99199.70;1750694;80;21059;-79
2022/09/16 09:04:07;;;;;;;5.80;4.20;;;;;;;22.04;59.08;99201.80;1709984;82;20956;-79
2022/09/16 09:06:56;;;;;;;6.37;4.33;;;;;;;22.23;59.21;99191.41;1710279;82;21542;-76
2022/09/16 09:09:35;;;;;;;6.00;4.20;;;;;;;22.45;58.02;99193.25;1698650;83;21193;-80
2022/09/16 09:12:33;;;;;;;5.90;4.10;;;;;;;22.64;56.74;99194.27;1767212;80;21093;-78
2022/09/16 09:15:27;;;;;;;5.93;3.57;;;;;;;22.78;56.43;99212.70;1768339;80;21445;-79
2022/09/16 09:18:20;;;;;;;5.87;4.17;;;;;;;22.91;54.27;99190.86;1763726;80;21067;-77
2022/09/16 09:21:30;;;;;;;5.50;3.87;;;;;;;23.02;55.02;99205.39;1758721;80;21448;-78
2022/09/16 09:24:11;;;;;;;5.17;3.70;;;;;;;23.21;54.49;99196.83;1771306;80;21303;-79
2022/09/16 09:27:07;;;;;;;5.40;3.80;;;;;;;23.30;53.67;99200.03;1726086;80;21023;-78
2022/09/16 09:30:16;;;;;;;5.43;3.40;;;;;;;23.37;53.80;99204.18;1766283;80;32821;-81
2022/09/16 09:33:09;;;;;;;4.43;3.03;;;;;;;23.41;52.56;99206.35;1766673;79;20962;-79
2022/09/16 09:36:03;;;;;;;4.83;3.47;;;;;;;23.33;51.93;99211.52;1771399;80;21066;-77
2022/09/16 09:38:53;;;;;;;5.07;3.67;;;;;;;23.12;52.13;99206.08;1784783;80;21141;-78
2022/09/16 09:41:26;;;;;;;5.43;3.23;;;;;;;22.93;52.26;99206.27;1768801;80;21055;-78
2022/09/16 09:43:58;;;;;;;6.07;3.00;;;;;;;22.99;53.03;99204.78;1749461;80;21046;-79
2022/09/16 09:46:41;;;;;;;5.37;3.10;;;;;;;23.07;51.95;99208.37;1764459;80;21081;-79
2022/09/16 09:49:30;;;;;;;4.30;3.20;;;;;;;23.13;50.48;99195.96;1757142;80;21144;-80
2022/09/16 09:52:20;;;;;;;6.17;3.03;;;;;;;23.17;50.83;99204.39;1711645;82;22318;-77
2022/09/16 09:54:50;;;;;;;4.77;3.40;;;;;;;23.23;50.72;99207.56;1710727;82;21066;-76
2022/09/16 09:57:39;;;;;;;6.27;3.50;;;;;;;23.32;51.19;99216.19;1705185;83;21131;-79
2022/09/16 10:00:17;;;;;;;4.47;2.97;;;;;;;23.36;49.75;99217.58;1771052;80;20999;-79
2022/09/16 10:02:44;;;;;;;5.90;3.20;;;;;;;23.29;49.09;99208.77;1764148;80;21039;-79
2022/09/16 10:05:27;;;;;;;5.43;3.27;;;;;;;23.33;48.38;99210.16;1770503;80;21085;-79
2022/09/16 10:08:20;;;;;;;5.47;2.70;;;;;;;23.33;48.10;99208.23;1764237;80;20935;-80
2022/09/16 10:10:53;;;;;;;3.83;2.37;;;;;;;23.34;47.76;99217.19;1742514;80;20951;-80
2022/09/16 10:13:21;;;;;;;4.87;2.70;;;;;;;23.38;48.10;99215.27;1763674;80;21156;-80
2022/09/16 10:15:48;;;;;;;6.43;3.00;;;;;;;23.39;46.91;99218.20;1778966;80;20975;-80
2022/09/16 10:18:28;;;;;;;5.47;2.80;;;;;;;23.37;46.93;99217.22;1784948;80;21089;-80
2022/09/16 10:21:15;;;;;;;4.80;2.63;;;;;;;23.32;46.18;99223.00;1768190;80;20942;-78
2022/09/16 10:23:56;;;;;;;6.23;3.27;;;;;;;23.32;46.13;99213.47;1749076;80;21039;-77
2022/09/16 10:26:27;;;;;;;4.03;2.80;;;;;;;23.39;46.33;99224.42;1751389;81;20989;-78
2022/09/16 10:29:04;;;;;;;7.00;3.07;;;;;;;23.52;46.49;99215.97;1708991;82;21586;-78
2022/09/16 10:31:36;;;;;;;5.30;3.40;;;;;;;23.68;46.25;99223.89;1699903;82;21136;-78
2022/09/16 10:34:07;;;;;;;4.23;2.87;;;;;;;23.80;46.11;99224.42;1712867;82;20991;-78
2022/09/16 10:36:34;;;;;;;4.92;2.85;;;;;;;23.91;45.91;99221.76;1694165;83;21613;-79
2022/09/16 10:39:01;;;;;;;6.10;2.73;;;;;;;23.93;45.91;99225.48;1708821;83;21084;-79
2022/09/16 10:41:35;;;;;;;5.67;2.70;;;;;;;23.85;45.58;99228.14;1771205;80;21050;-78
2022/09/16 10:44:27;;;;;;;6.20;3.13;;;;;;;23.73;45.19;99222.23;1738802;81;21254;-78
2022/09/16 10:47:05;;;;;;;5.40;2.75;;;;;;;23.64;45.78;99227.38;1759291;80;21529;-79
2022/09/16 10:49:48;;;;;;;4.80;3.17;;;;;;;23.63;45.72;99216.86;1771370;80;21039;-80
2022/09/16 10:52:27;;;;;;;5.73;3.10;;;;;;;23.64;45.51;99220.56;1784535;80;20984;-78
2022/09/16 10:54:54;;;;;;;5.63;2.90;;;;;;;23.60;45.45;99218.39;1780864;80;20990;-79
2022/09/16 10:57:25;;;;;;;5.07;2.60;;;;;;;23.58;46.24;99220.70;1721030;83;21096;-79
2022/09/16 11:00:15;;;;;;;4.60;2.58;;;;;;;23.55;45.38;99217.36;1740789;80;21051;-79
2022/09/16 11:03:08;;;;;;;4.33;2.77;;;;;;;23.47;45.46;99223.15;1760756;80;21587;-79
2022/09/16 11:06:05;;;;;;;5.27;2.67;;;;;;;23.41;45.87;99215.30;1754322;80;21035;-78
2022/09/16 11:08:58;;;;;;;4.93;2.73;;;;;;;23.37;45.23;99219.17;1761125;80;21039;-77
2022/09/16 11:11:52;;;;;;;4.30;2.90;;;;;;;23.20;45.19;99232.02;1768894;80;21116;-79
2022/09/16 11:14:57;;;;;;;4.57;2.80;;;;;;;23.04;45.58;99230.91;1771332;80;21030;-80
2022/09/16 11:17:41;;;;;;;5.00;2.70;;;;;;;23.02;45.60;99228.54;1763087;80;21082;-80
2022/09/16 11:20:48;;;;;;;4.27;2.63;;;;;;;23.23;45.95;99221.19;1752201;80;21023;-80
2022/09/16 11:23:38;;;;;;;4.83;2.80;;;;;;;23.49;44.61;99214.78;1772777;80;20963;-77
2022/09/16 11:26:28;;;;;;;3.70;2.40;;;;;;;23.73;44.30;99223.00;1751994;80;21538;-79
2022/09/16 11:29:13;;;;;;;4.80;2.70;;;;;;;23.89;44.07;99221.38;1766563;80;21007;-79
2022/09/16 11:31:51;;;;;;;5.00;2.43;;;;;;;23.99;43.94;99227.48;1768403;79;21011;-77
2022/09/16 11:34:26;;;;;;;5.13;2.70;;;;;;;24.02;43.85;99232.73;1758229;80;21046;-79
2022/09/16 11:37:24;;;;;;;7.80;3.50;;;;;;;24.06;44.15;99226.75;1762475;80;21002;-77
2022/09/16 11:40:23;;;;;;;6.63;3.07;;;;;;;24.15;43.78;99238.66;1756648;80;21741;-79
2022/09/16 11:43:20;;;;;;;4.07;2.90;;;;;;;24.17;43.70;99225.44;1765774;80;21501;-79
2022/09/16 11:46:12;;;;;;;4.33;2.77;;;;;;;24.20;43.82;99228.77;1765509;80;21037;-79
2022/09/16 11:48:53;;;;;;;8.57;3.43;;;;;;;24.22;43.81;99226.42;1716970;82;21004;-79
2022/09/16 11:51:46;;;;;;;4.20;2.53;;;;;;;24.25;43.62;99223.75;1721204;83;20987;-79
2022/09/16 11:54:56;;;;;;;4.50;2.87;;;;;;;24.24;43.66;99215.34;1707738;81;21455;-79
2022/09/16 11:57:42;;;;;;;5.67;2.80;;;;;;;24.29;43.59;99219.08;1713009;83;21541;-77
2022/09/16 12:00:17;;;;;;;5.00;2.80;;;;;;;24.31;44.28;99214.59;1714028;82;21055;-77
2022/09/16 12:03:22;;;;;;;5.30;2.87;;;;;;;24.38;43.56;99213.26;1689047;83;21130;-79
2022/09/16 12:05:53;;;;;;;3.57;2.40;;;;;;;24.48;43.65;99220.77;1709214;84;20941;-78
2022/09/16 12:08:31;;;;;;;3.90;2.33;;;;;;;24.47;42.85;99225.23;1704063;83;23734;-80
2022/09/16 12:11:18;;;;;;;4.93;2.70;;;;;;;24.42;42.43;99221.52;1714813;83;21027;-79
2022/09/16 12:13:57;;;;;;;4.13;2.50;;;;;;;24.37;41.83;99221.84;1766145;80;21030;-79
2022/09/16 12:16:44;;;;;;;4.13;2.30;;;;;;;24.25;41.97;99229.76;1750573;81;20968;-80
2022/09/16 12:19:22;;;;;;;4.83;2.63;;;;;;;24.10;41.19;99228.32;1750804;82;21066;-79
2022/09/16 12:22:09;;;;;;;4.17;2.67;;;;;;;23.94;41.70;99233.28;1749812;80;21335;-79
2022/09/16 12:25:08;;;;;;;4.90;2.70;;;;;;;23.86;42.03;99242.58;1704788;83;20967;-79
2022/09/16 12:28:03;;;;;;;5.10;2.90;;;;;;;23.81;42.87;99241.55;1694968;83;21021;-80
2022/09/16 12:30:41;;;;;;;5.00;2.93;;;;;;;23.81;43.24;99243.70;1704112;84;21069;-79
2022/09/16 12:33:23;;;;;;;6.17;2.87;;;;;;;23.79;43.51;99234.32;1704316;84;21575;-78
2022/09/16 12:35:59;;;;;;;6.10;2.80;;;;;;;23.71;43.33;99236.22;1707217;83;21362;-78
2022/09/16 12:38:26;;;;;;;3.63;2.30;;;;;;;23.67;43.85;99237.33;1747013;80;20992;-79
2022/09/16 12:41:12;;;;;;;5.13;2.93;;;;;;;23.68;44.28;99236.16;1712411;83;21003;-77
2022/09/16 12:43:55;;;;;;;4.30;3.00;;;;;;;23.69;44.41;99237.20;1710861;82;20963;-79
2022/09/16 12:46:53;;;;;;;5.30;2.80;;;;;;;23.73;44.30;99231.77;1703701;84;21424;-79
2022/09/16 12:49:31;;;;;;;5.10;2.97;;;;;;;23.74;44.17;99234.10;1706048;84;21287;-78
2022/09/16 12:52:21;;;;;;;4.43;2.60;;;;;;;23.77;44.27;99233.35;1706071;84;20998;-79
2022/09/16 12:55:30;;;;;;;4.33;2.87;;;;;;;23.81;44.36;99233.38;1706205;83;21038;-79
2022/09/16 12:58:23;;;;;;;6.47;2.70;;;;;;;23.85;44.11;99239.05;1699748;83;21456;-76